createdAt,value
2022-08-09T00:01:10.204Z,18.97
2022-08-09T00:04:00.778Z,18.91
2022-08-09T00:06:23.651Z,18.90
2022-08-09T00:08:50.431Z,18.86
2022-08-09T00:11:25.184Z,18.87
2022-08-09T00:13:54.096Z,18.84
2022-08-09T00:16:26.210Z,18.76
2022-08-09T00:19:03.276Z,18.73
2022-08-09T00:21:35.902Z,18.75
2022-08-09T00:24:02.202Z,18.71
2022-08-09T00:26:29.828Z,18.69
2022-08-09T00:28:59.297Z,18.38
2022-08-09T00:31:58.304Z,18.40
2022-08-09T00:34:12.488Z,18.53
2022-08-09T00:36:41.548Z,18.56
2022-08-09T00:39:16.803Z,18.52
2022-08-09T00:44:16.493Z,18.51
2022-08-09T00:44:40.809Z,18.49
2022-08-09T00:47:07.632Z,18.37
2022-08-09T00:49:36.596Z,18.48
2022-08-09T00:52:05.493Z,18.49
2022-08-09T00:54:43.095Z,18.44
2022-08-09T00:57:11.293Z,18.38
2022-08-09T00:59:40.995Z,18.34
2022-08-09T01:02:12.410Z,18.28
2022-08-09T01:04:39.394Z,18.19
2022-08-09T01:07:13.847Z,18.09
2022-08-09T01:09:40.379Z,18.06
2022-08-09T01:12:06.691Z,17.97
2022-08-09T01:14:34.969Z,17.96
2022-08-09T01:17:01.280Z,17.81
2022-08-09T01:19:40.031Z,17.88
2022-08-09T01:22:16.452Z,17.72
2022-08-09T01:24:44.104Z,17.71
2022-08-09T01:27:17.805Z,17.65
2022-08-09T01:29:55.991Z,17.65
2022-08-09T01:32:32.093Z,17.72
2022-08-09T01:35:00.584Z,17.63
2022-08-09T01:38:08.174Z,17.64
2022-08-09T01:40:30.713Z,17.60
2022-08-09T01:42:57.949Z,17.59
2022-08-09T01:45:24.822Z,17.56
2022-08-09T01:47:51.208Z,17.56
2022-08-09T01:50:17.862Z,17.54
2022-08-09T01:52:56.335Z,17.49
2022-08-09T01:55:22.617Z,17.48
2022-08-09T01:57:50.693Z,17.47
2022-08-09T02:00:35.958Z,17.45
2022-08-09T02:03:02.915Z,17.45
2022-08-09T02:05:38.069Z,17.41
2022-08-09T02:08:40.229Z,17.36
2022-08-09T02:11:02.364Z,17.27
2022-08-09T02:13:40.388Z,17.28
2022-08-09T02:16:07.052Z,17.25
2022-08-09T02:18:34.963Z,17.22
2022-08-09T02:21:01.256Z,17.20
2022-08-09T02:23:27.556Z,17.18
2022-08-09T02:25:58.426Z,17.00
2022-08-09T02:28:26.397Z,17.04
2022-08-09T02:30:53.687Z,17.02
2022-08-09T02:33:20.405Z,17.00
2022-08-09T02:36:02.729Z,16.99
2022-08-09T02:38:30.590Z,16.99
2022-08-09T02:40:56.909Z,16.98
2022-08-09T02:43:23.378Z,16.97
2022-08-09T02:45:55.180Z,16.86
2022-08-09T02:48:31.215Z,16.85
2022-08-09T02:50:58.102Z,16.83
2022-08-09T02:53:26.318Z,16.73
2022-08-09T02:55:58.382Z,16.73
2022-08-09T02:58:36.433Z,16.68
2022-08-09T03:01:06.103Z,16.66
2022-08-09T03:04:12.200Z,16.65
2022-08-09T03:06:19.106Z,16.61
2022-08-09T03:08:48.142Z,16.50
2022-08-09T03:11:15.490Z,16.43
2022-08-09T03:14:01.982Z,16.49
2022-08-09T03:16:28.301Z,16.46
2022-08-09T03:18:55.609Z,16.46
2022-08-09T03:21:25.942Z,16.25
2022-08-09T03:24:03.981Z,16.31
2022-08-09T03:26:32.182Z,16.32
2022-08-09T03:28:59.280Z,16.32
2022-08-09T03:31:25.675Z,16.40
2022-08-09T03:33:54.205Z,16.38
2022-08-09T03:36:21.320Z,16.22
2022-08-09T03:38:54.204Z,16.31
2022-08-09T03:41:20.498Z,16.32
2022-08-09T03:44:08.566Z,16.36
2022-08-09T03:46:35.328Z,16.36
2022-08-09T03:49:03.958Z,16.29
2022-08-09T03:51:55.222Z,16.31
2022-08-09T03:54:29.712Z,16.27
2022-08-09T03:56:57.725Z,16.28
2022-08-09T03:59:27.522Z,16.28
2022-08-09T04:02:09.727Z,16.28
2022-08-09T04:04:38.680Z,16.28
2022-08-09T04:07:05.347Z,16.27
2022-08-09T04:09:41.984Z,16.19
2022-08-09T04:12:30.058Z,16.26
2022-08-09T04:15:02.118Z,16.27
2022-08-09T04:17:37.595Z,16.22
2022-08-09T04:20:05.649Z,16.25
2022-08-09T04:22:33.762Z,16.27
2022-08-09T04:25:00.120Z,16.29
2022-08-09T04:27:29.121Z,16.35
2022-08-09T04:29:55.525Z,16.36
2022-08-09T04:32:31.321Z,16.35
2022-08-09T04:34:58.022Z,16.28
2022-08-09T04:37:24.351Z,16.19
2022-08-09T04:40:11.433Z,16.37
2022-08-09T04:42:45.722Z,16.43
2022-08-09T04:45:14.857Z,16.55
2022-08-09T04:47:59.474Z,16.60
2022-08-09T04:50:35.007Z,16.65
2022-08-09T04:53:11.616Z,16.79
2022-08-09T04:55:57.298Z,16.93
2022-08-09T04:58:25.006Z,17.12
2022-08-09T05:00:52.100Z,17.25
2022-08-09T05:03:40.301Z,17.43
2022-08-09T05:06:07.646Z,17.50
2022-08-09T05:08:34.701Z,17.62
2022-08-09T05:11:01.158Z,17.55
2022-08-09T05:13:28.960Z,17.78
2022-08-09T05:15:59.328Z,17.81
2022-08-09T05:18:50.350Z,17.94
2022-08-09T05:21:22.970Z,18.08
2022-08-09T05:23:59.903Z,18.21
2022-08-09T05:26:36.936Z,18.20
2022-08-09T05:29:17.036Z,18.47
2022-08-09T05:31:46.699Z,18.57
2022-08-09T05:34:17.586Z,18.64
2022-08-09T05:36:44.019Z,18.75
2022-08-09T05:39:13.749Z,18.91
2022-08-09T05:41:55.019Z,18.98
2022-08-09T05:44:22.343Z,19.15
2022-08-09T05:46:58.575Z,19.20
2022-08-09T05:50:24.282Z,19.24
2022-08-09T05:52:11.678Z,19.36
2022-08-09T05:54:38.279Z,19.46
2022-08-09T05:57:06.406Z,19.54
2022-08-09T05:59:32.704Z,19.66
2022-08-09T06:01:59.820Z,19.76
2022-08-09T06:04:26.130Z,19.69
2022-08-09T06:07:01.441Z,19.53
2022-08-09T06:09:55.059Z,19.79
2022-08-09T06:12:14.006Z,20.08
2022-08-09T06:14:40.302Z,20.22
2022-08-09T06:17:10.083Z,20.35
2022-08-09T06:19:36.621Z,20.40
2022-08-09T06:22:03.310Z,20.28
2022-08-09T06:24:29.775Z,20.35
2022-08-09T06:26:57.848Z,20.39
2022-08-09T06:29:24.286Z,20.60
2022-08-09T06:32:08.356Z,20.63
2022-08-09T06:34:35.480Z,20.60
2022-08-09T06:37:02.956Z,20.87
2022-08-09T06:39:48.511Z,21.06
2022-08-09T06:42:15.556Z,21.08
2022-08-09T06:44:41.855Z,21.20
2022-08-09T06:47:09.695Z,21.12
2022-08-09T06:50:12.149Z,20.48
2022-08-09T06:52:23.491Z,20.68
2022-08-09T06:54:50.022Z,20.92
2022-08-09T06:57:17.076Z,20.99
2022-08-09T07:00:55.290Z,21.43
2022-08-09T07:02:31.693Z,21.31
2022-08-09T07:04:58.516Z,21.54
2022-08-09T07:07:58.956Z,21.00
2022-08-09T07:10:22.233Z,21.93
2022-08-09T07:12:57.207Z,22.19
2022-08-09T07:16:38.829Z,22.26
2022-08-09T07:18:10.544Z,21.35
2022-08-09T07:20:40.716Z,21.94
2022-08-09T07:23:19.133Z,22.64
2022-08-09T07:25:46.120Z,22.46
2022-08-09T07:28:18.995Z,22.34
2022-08-09T07:30:45.814Z,22.71
2022-08-09T07:33:16.444Z,22.90
2022-08-09T07:35:53.562Z,22.41
2022-08-09T07:38:20.732Z,22.57
2022-08-09T07:41:00.507Z,23.12
2022-08-09T07:43:41.352Z,23.43
2022-08-09T07:46:17.289Z,23.50
2022-08-09T07:48:45.836Z,23.20
2022-08-09T07:52:05.255Z,23.18
2022-08-09T07:54:07.633Z,23.57
2022-08-09T07:56:34.895Z,23.99
2022-08-09T07:59:07.506Z,24.14
2022-08-09T08:01:40.545Z,24.14
2022-08-09T08:04:10.446Z,24.02
2022-08-09T08:06:37.255Z,24.04
2022-08-09T08:09:39.750Z,24.23
2022-08-09T08:12:08.284Z,24.53
2022-08-09T08:14:38.014Z,24.38
2022-08-09T08:17:08.819Z,24.73
2022-08-09T08:19:38.275Z,24.70
2022-08-09T08:22:04.584Z,25.01
2022-08-09T08:24:39.824Z,25.19
2022-08-09T08:27:06.671Z,24.77
2022-08-09T08:29:45.262Z,24.96
2022-08-09T08:32:24.141Z,24.93
2022-08-09T08:34:58.583Z,25.16
2022-08-09T08:37:25.542Z,25.60
2022-08-09T08:40:08.458Z,25.75
2022-08-09T08:42:34.836Z,25.83
2022-08-09T08:45:13.503Z,25.90
2022-08-09T08:47:42.864Z,25.29
2022-08-09T08:50:11.284Z,25.26
2022-08-09T08:52:57.708Z,25.57
2022-08-09T08:55:26.143Z,25.92
2022-08-09T08:57:57.082Z,25.69
2022-08-09T09:00:27.963Z,25.65
2022-08-09T09:02:59.425Z,25.92
2022-08-09T09:05:57.419Z,25.89
2022-08-09T09:08:29.198Z,26.46
2022-08-09T09:10:57.817Z,26.66
2022-08-09T09:13:24.150Z,27.01
2022-08-09T09:16:08.028Z,26.84
2022-08-09T09:18:34.373Z,27.16
2022-08-09T09:21:02.345Z,26.72
2022-08-09T09:23:38.072Z,26.96
2022-08-09T09:26:12.388Z,27.27
2022-08-09T09:29:03.407Z,27.58
2022-08-09T09:32:06.921Z,28.05
2022-08-09T09:34:14.732Z,28.09
2022-08-09T09:36:52.925Z,27.96
2022-08-09T09:39:22.731Z,28.02
2022-08-09T09:41:51.053Z,27.64
2022-08-09T09:44:25.552Z,27.75
2022-08-09T09:46:53.763Z,27.46
2022-08-09T09:49:23.529Z,27.84
2022-08-09T09:52:33.698Z,27.67
2022-08-09T09:54:55.924Z,28.00
2022-08-09T09:58:03.460Z,28.63
2022-08-09T10:00:08.807Z,28.81
2022-08-09T10:02:38.034Z,28.39
2022-08-09T10:05:06.505Z,28.23
2022-08-09T10:07:33.205Z,27.73
2022-08-09T10:10:03.242Z,28.14
2022-08-09T10:12:31.466Z,28.30
2022-08-09T10:14:57.915Z,28.38
2022-08-09T10:17:50.802Z,28.18
2022-08-09T10:20:15.008Z,28.16
2022-08-09T10:22:41.919Z,27.72
2022-08-09T10:25:11.620Z,27.93
2022-08-09T10:27:45.106Z,28.16
2022-08-09T10:33:09.075Z,27.71
2022-08-09T10:35:55.355Z,27.63
2022-08-09T10:38:54.799Z,28.15
2022-08-09T10:41:13.652Z,28.45
2022-08-09T10:43:46.793Z,28.40
2022-08-09T10:46:21.043Z,28.13
2022-08-09T10:48:52.435Z,28.67
2022-08-09T10:51:18.813Z,28.30
2022-08-09T10:53:46.985Z,28.45
2022-08-09T10:56:23.250Z,28.36
2022-08-09T10:58:49.722Z,28.18
2022-08-09T11:03:15.686Z,27.64
2022-08-09T11:04:04.053Z,27.54
2022-08-09T11:06:34.010Z,27.35
2022-08-09T11:09:03.546Z,27.04
2022-08-09T11:11:43.666Z,27.80
2022-08-09T11:14:18.287Z,28.37
2022-08-09T11:16:54.699Z,28.55
2022-08-09T11:19:21.024Z,28.66
2022-08-09T11:22:27.166Z,28.50
2022-08-09T11:24:53.500Z,28.50
2022-08-09T11:28:05.485Z,28.11
2022-08-09T11:30:33.547Z,28.18
2022-08-09T11:32:52.463Z,28.15
2022-08-09T11:35:26.361Z,28.15
2022-08-09T11:38:01.651Z,27.63
2022-08-09T11:40:29.566Z,27.64
2022-08-09T11:42:56.079Z,28.09
2022-08-09T11:45:22.396Z,28.19
2022-08-09T11:47:49.067Z,28.26
2022-08-09T11:50:53.961Z,28.20
2022-08-09T11:53:58.998Z,28.63
2022-08-09T11:55:53.539Z,28.08
2022-08-09T11:58:32.523Z,28.25
2022-08-09T12:01:15.452Z,28.42
2022-08-09T12:03:57.773Z,28.87
2022-08-09T12:06:32.482Z,28.89
2022-08-09T12:09:01.411Z,28.85
2022-08-09T12:11:27.817Z,29.18
2022-08-09T12:14:10.258Z,29.34
2022-08-09T12:16:40.185Z,29.41
2022-08-09T12:19:08.432Z,29.33
2022-08-09T12:21:38.251Z,29.62
2022-08-09T12:24:08.722Z,29.97
2022-08-09T12:26:35.679Z,29.03
2022-08-09T12:29:29.483Z,29.22
2022-08-09T12:32:02.005Z,28.84
2022-08-09T12:34:29.685Z,28.71
2022-08-09T12:36:59.085Z,28.94
2022-08-09T12:39:42.633Z,27.77
2022-08-09T12:42:09.004Z,28.13
2022-08-09T12:44:37.424Z,28.02
2022-08-09T12:47:04.844Z,28.11
2022-08-09T12:49:31.262Z,27.98
2022-08-09T12:52:02.525Z,28.02
2022-08-09T12:54:29.313Z,28.05
2022-08-09T12:56:58.622Z,28.18
2022-08-09T12:59:25.049Z,28.67
2022-08-09T13:02:11.277Z,28.96
2022-08-09T13:04:41.416Z,29.13
2022-08-09T13:07:08.020Z,29.38
2022-08-09T13:09:38.324Z,29.58
2022-08-09T13:12:08.389Z,29.88
2022-08-09T13:14:41.250Z,30.05
2022-08-09T13:17:16.055Z,30.30
2022-08-09T13:20:10.247Z,30.25
2022-08-09T13:23:00.251Z,30.24
2022-08-09T13:25:21.081Z,29.99
2022-08-09T13:27:54.536Z,29.68
2022-08-09T13:32:09.995Z,29.39
2022-08-09T13:33:11.731Z,29.21
2022-08-09T13:36:24.827Z,29.54
2022-08-09T13:38:54.639Z,29.59
2022-08-09T13:41:51.669Z,29.51
2022-08-09T13:44:05.432Z,29.20
2022-08-09T13:47:15.980Z,28.98
2022-08-09T13:49:18.661Z,28.28
2022-08-09T13:51:58.737Z,28.62
2022-08-09T13:54:27.626Z,28.16
2022-08-09T13:56:56.721Z,28.11
2022-08-09T13:59:25.364Z,28.81
2022-08-09T14:02:00.409Z,28.97
2022-08-09T14:04:28.358Z,29.17
2022-08-09T14:06:55.284Z,28.18
2022-08-09T14:09:22.040Z,28.04
2022-08-09T14:11:48.661Z,28.61
2022-08-09T14:14:24.790Z,29.09
2022-08-09T14:16:54.446Z,29.16
2022-08-09T14:19:20.762Z,29.33
2022-08-09T14:21:48.808Z,28.85
2022-08-09T14:24:22.430Z,29.35
2022-08-09T14:27:00.148Z,29.52
2022-08-09T14:30:35.577Z,29.20
2022-08-09T14:32:19.575Z,28.97
2022-08-09T14:34:46.056Z,28.85
2022-08-09T14:37:12.351Z,28.98
2022-08-09T14:39:45.112Z,29.11
2022-08-09T14:42:29.120Z,28.78
2022-08-09T14:45:00.005Z,29.07
2022-08-09T14:47:44.822Z,29.28
2022-08-09T14:50:13.145Z,29.39
2022-08-09T14:52:42.639Z,29.38
2022-08-09T14:55:08.936Z,29.24
2022-08-09T14:57:43.557Z,29.17
2022-08-09T15:00:10.302Z,28.97
2022-08-09T15:02:36.620Z,29.21
2022-08-09T15:05:06.957Z,28.93
2022-08-09T15:07:35.398Z,29.21
2022-08-09T15:10:07.822Z,28.89
2022-08-09T15:12:40.508Z,29.31
2022-08-09T15:15:11.455Z,29.05
2022-08-09T15:17:41.926Z,29.01
2022-08-09T15:20:11.806Z,29.20
2022-08-09T15:22:46.681Z,29.24
2022-08-09T15:25:14.307Z,29.13
2022-08-09T15:27:47.871Z,29.02
2022-08-09T15:30:58.706Z,28.66
2022-08-09T15:33:23.226Z,28.90
2022-08-09T15:36:01.946Z,29.11
2022-08-09T15:38:28.619Z,29.18
2022-08-09T15:40:54.914Z,29.31
2022-08-09T15:43:21.218Z,28.80
2022-08-09T15:46:07.889Z,28.99
2022-08-09T15:48:37.410Z,28.89
2022-08-09T15:51:30.181Z,28.99
2022-08-09T15:54:04.360Z,28.82
2022-08-09T15:56:36.107Z,28.84
2022-08-09T15:59:02.542Z,28.79
2022-08-09T16:01:31.396Z,28.66
2022-08-09T16:04:02.216Z,28.82
2022-08-09T16:06:35.284Z,28.97
2022-08-09T16:09:05.122Z,29.08
2022-08-09T16:11:33.270Z,28.74
2022-08-09T16:14:02.902Z,28.79
2022-08-09T16:16:33.172Z,28.73
2022-08-09T16:19:01.066Z,28.92
2022-08-09T16:21:31.594Z,29.05
2022-08-09T16:24:02.445Z,28.67
2022-08-09T16:26:33.952Z,28.87
2022-08-09T16:29:05.856Z,28.85
2022-08-09T16:32:10.254Z,28.36
2022-08-09T16:34:18.767Z,28.38
2022-08-09T16:36:50.036Z,28.34
2022-08-09T16:39:16.369Z,28.55
2022-08-09T16:42:02.536Z,28.51
2022-08-09T16:44:31.817Z,28.06
2022-08-09T16:47:03.839Z,28.24
2022-08-09T16:50:31.986Z,28.30
2022-08-09T16:52:30.858Z,27.99
2022-08-09T16:54:57.975Z,27.95
2022-08-09T16:57:24.328Z,28.00
2022-08-09T16:59:57.682Z,27.86
2022-08-09T17:02:25.556Z,27.76
2022-08-09T17:04:51.981Z,27.55
2022-08-09T17:08:43.202Z,27.48
2022-08-09T17:10:05.674Z,27.58
2022-08-09T17:12:35.360Z,27.61
2022-08-09T17:15:01.844Z,27.61
2022-08-09T17:17:50.687Z,27.64
2022-08-09T17:20:32.809Z,27.66
2022-08-09T17:23:03.904Z,27.51
2022-08-09T17:25:31.212Z,27.58
2022-08-09T17:27:59.907Z,27.56
2022-08-09T17:30:28.737Z,27.54
2022-08-09T17:33:00.638Z,27.48
2022-08-09T17:35:31.153Z,27.46
2022-08-09T17:38:14.243Z,27.41
2022-08-09T17:40:47.339Z,27.39
2022-08-09T17:43:34.775Z,27.31
2022-08-09T17:46:06.201Z,26.95
2022-08-09T17:48:33.536Z,26.71
2022-08-09T17:51:09.447Z,27.02
2022-08-09T17:53:43.222Z,27.15
2022-08-09T17:56:14.345Z,27.15
2022-08-09T17:58:44.584Z,27.20
2022-08-09T18:01:11.062Z,27.20
2022-08-09T18:03:49.253Z,27.09
2022-08-09T18:06:31.351Z,26.96
2022-08-09T18:08:58.912Z,27.02
2022-08-09T18:11:25.395Z,27.07
2022-08-09T18:13:57.700Z,26.88
2022-08-09T18:16:30.645Z,26.76
2022-08-09T18:18:57.177Z,26.46
2022-08-09T18:21:25.986Z,26.38
2022-08-09T18:24:09.999Z,26.65
2022-08-09T18:26:46.789Z,26.49
2022-08-09T18:30:40.356Z,26.50
2022-08-09T18:32:00.842Z,26.43
2022-08-09T18:34:31.348Z,26.38
2022-08-09T18:36:58.034Z,26.31
2022-08-09T18:39:25.487Z,26.30
2022-08-09T18:41:52.789Z,26.19
2022-08-09T18:44:20.122Z,26.25
2022-08-09T18:47:08.154Z,26.32
2022-08-09T18:49:43.020Z,26.35
2022-08-09T18:52:10.086Z,26.15
2022-08-09T18:54:37.929Z,26.10
2022-08-09T18:57:05.163Z,26.07
2022-08-09T18:59:37.329Z,25.86
2022-08-09T19:02:10.304Z,25.77
2022-08-09T19:04:41.093Z,25.32
2022-08-09T19:07:14.159Z,25.23
2022-08-09T19:10:14.815Z,25.17
2022-08-09T19:12:29.125Z,25.20
2022-08-09T19:14:55.496Z,25.31
2022-08-09T19:17:22.846Z,25.18
2022-08-09T19:19:49.148Z,25.16
2022-08-09T19:22:25.059Z,25.10
2022-08-09T19:25:09.635Z,25.03
2022-08-09T19:27:39.837Z,24.98
2022-08-09T19:30:23.790Z,24.95
2022-08-09T19:32:53.112Z,24.87
2022-08-09T19:35:19.839Z,24.79
2022-08-09T19:37:56.394Z,24.70
2022-08-09T19:40:24.301Z,24.43
2022-08-09T19:43:01.752Z,24.36
2022-08-09T19:45:28.332Z,24.12
2022-08-09T19:48:06.777Z,24.30
2022-08-09T19:50:48.831Z,24.38
2022-08-09T19:53:17.924Z,24.27
2022-08-09T19:56:05.907Z,24.31
2022-08-09T19:58:33.072Z,24.31
2022-08-09T20:00:59.865Z,24.29
2022-08-09T20:04:18.263Z,24.29
2022-08-09T20:06:23.853Z,24.24
2022-08-09T20:08:56.685Z,24.24
2022-08-09T20:11:26.128Z,24.18
2022-08-09T20:13:54.256Z,24.14
2022-08-09T20:16:32.901Z,23.85
2022-08-09T20:19:48.599Z,23.91
2022-08-09T20:21:57.235Z,23.94
2022-08-09T20:24:29.446Z,23.90
2022-08-09T20:27:00.945Z,23.84
2022-08-09T20:29:32.494Z,23.66
2022-08-09T20:32:28.935Z,23.68
2022-08-09T20:34:50.692Z,23.66
2022-08-09T20:37:17.761Z,23.62
2022-08-09T20:40:17.311Z,23.55
2022-08-09T20:42:35.357Z,23.11
2022-08-09T20:46:01.508Z,22.69
2022-08-09T20:47:50.695Z,22.66
2022-08-09T20:50:47.789Z,22.80
2022-08-09T20:53:03.270Z,23.04
2022-08-09T20:55:29.608Z,23.07
2022-08-09T20:58:20.185Z,23.08
2022-08-09T21:01:02.187Z,22.88
2022-08-09T21:03:39.146Z,22.43
2022-08-09T21:06:19.546Z,22.22
2022-08-09T21:08:49.778Z,22.60
2022-08-09T21:14:02.996Z,22.81
2022-08-09T21:16:30.576Z,22.79
2022-08-09T21:20:04.192Z,22.78
2022-08-09T21:21:56.010Z,22.73
2022-08-09T21:24:28.344Z,22.72
2022-08-09T21:26:55.697Z,22.68
2022-08-09T21:29:22.760Z,22.60
2022-08-09T21:31:49.831Z,22.59
2022-08-09T21:34:28.648Z,22.58
2022-08-09T21:36:56.572Z,22.51
2022-08-09T21:39:28.317Z,22.43
2022-08-09T21:42:10.623Z,22.43
2022-08-09T21:44:37.945Z,22.37
2022-08-09T21:47:04.381Z,22.04
2022-08-09T21:49:40.542Z,22.14
2022-08-09T21:52:16.970Z,22.14
2022-08-09T21:54:46.171Z,22.11
2022-08-09T21:57:37.432Z,22.05
2022-08-09T21:59:59.009Z,22.00
2022-08-09T22:02:36.044Z,21.92
2022-08-09T22:05:16.910Z,21.90
2022-08-09T22:07:52.165Z,21.78
2022-08-09T22:10:22.972Z,21.84
2022-08-09T22:12:50.210Z,21.80
2022-08-09T22:15:16.940Z,21.73
2022-08-09T22:17:46.601Z,21.39
2022-08-09T22:20:21.545Z,21.62
2022-08-09T22:22:48.730Z,21.40
2022-08-09T22:26:07.872Z,20.96
2022-08-09T22:28:01.402Z,21.15
2022-08-09T22:30:33.700Z,21.09
2022-08-09T22:33:00.028Z,21.36
2022-08-09T22:36:02.530Z,21.46
2022-08-09T22:38:14.716Z,21.14
2022-08-09T22:40:48.774Z,20.76
2022-08-09T22:44:00.814Z,21.08
2022-08-09T22:48:10.966Z,21.16
2022-08-09T22:49:01.785Z,21.18
2022-08-09T22:51:31.880Z,20.99
2022-08-09T22:54:02.656Z,20.85
2022-08-09T22:56:34.361Z,20.64
2022-08-09T22:59:00.970Z,20.82
2022-08-09T23:01:32.530Z,20.84
2022-08-09T23:04:05.423Z,20.92
2022-08-09T23:06:52.646Z,20.72
2022-08-09T23:09:18.970Z,20.70
2022-08-09T23:11:45.262Z,20.63
2022-08-09T23:14:17.424Z,20.71
2022-08-09T23:16:43.989Z,20.72
2022-08-09T23:19:10.273Z,20.76
2022-08-09T23:21:38.540Z,20.76
2022-08-09T23:24:07.173Z,20.70
2022-08-09T23:26:33.700Z,20.71
2022-08-09T23:28:59.983Z,20.71
2022-08-09T23:31:26.427Z,20.61
2022-08-09T23:33:52.735Z,20.34
2022-08-09T23:36:19.021Z,20.19
2022-08-09T23:38:49.226Z,19.97
2022-08-09T23:41:27.441Z,19.75
2022-08-09T23:43:55.463Z,20.06
2022-08-09T23:46:21.781Z,20.17
2022-08-09T23:48:48.076Z,20.21
2022-08-09T23:51:14.382Z,20.20
2022-08-09T23:53:40.677Z,20.14
2022-08-09T23:56:07.062Z,20.13
2022-08-09T23:58:33.371Z,20.12
